<?xml version="1.0" encoding="UTF-8" standalone="no" ?>
<gpx xmlns="http://www.topografix.com/GPX/1/1" xmlns:xsi="http://www.w3.org/2001/XMLSchema-instance" xsi:schemaLocation="http://www.topografix.com/GPX/1/1 http://www.topografix.com/GPX/1/1/gpx.xsd" version="1.1" creator="VisuGPX - https://www.visugpx.com">
  <metadata>
    <name>Boucle Auvers Butry Valemondois</name>
    <desc><![CDATA[Boucle Auvers Butry Valemondois]]></desc>
  </metadata>
  <wpt lat="49.07059" lon="2.17789">
    <ele>26</ele>
    <name><![CDATA[Pont de la D928]]></name>
  </wpt>
  <wpt lat="49.09662" lon="2.15983">
    <ele>81</ele>
    <name><![CDATA[D27, tournez à droite]]></name>
  </wpt>
  <wpt lat="49.10219" lon="2.17135">
    <ele>100</ele>
    <name><![CDATA[Crucifix]]></name>
  </wpt>
  <wpt lat="49.10641" lon="2.18174">
    <ele>34</ele>
    <name><![CDATA[Chemin de promenade, tournez à droite]]></name>
  </wpt>
  <wpt lat="49.09763" lon="2.19109">
    <ele>32</ele>
    <name><![CDATA[Buste d'Honoré Daumier]]></name>
  </wpt>
  <wpt lat="49.09409" lon="2.19359">
    <ele>30</ele>
    <name><![CDATA[Grande Rue (D151) tournez à gauche]]></name>
  </wpt>
  <wpt lat="49.09343" lon="2.19511">
    <ele>30</ele>
    <name><![CDATA[A droite,  direction Butry-sur-Oise]]></name>
  </wpt>
  <wpt lat="49.09049" lon="2.19752">
    <ele>33</ele>
    <name><![CDATA[Voie ferrée métrique]]></name>
  </wpt>
  <wpt lat="49.09117" lon="2.20772">
    <ele>28</ele>
    <name><![CDATA[Bord de l'Oise]]></name>
  </wpt>
  <trk>
    <name><![CDATA[La Vallée de l'Oise des peintres paysagistes]]></name>
    <trkseg>
      <trkpt lat="49.07067" lon="2.17643">
        <ele>29</ele>
        <time>2018-12-25T20:44:02+01:00</time>
      </trkpt>
      <trkpt lat="49.07069" lon="2.17714">
        <ele>28</ele>
        <time>2018-12-25T20:44:07+01:00</time>
      </trkpt>
      <trkpt lat="49.07059" lon="2.17789">
        <ele>26</ele>
        <time>2018-12-25T20:44:12+01:00</time>
      </trkpt>
      <trkpt lat="49.07118" lon="2.17715">
        <ele>33</ele>
        <time>2018-12-25T20:44:17+01:00</time>
      </trkpt>
      <trkpt lat="49.07157" lon="2.17672">
        <ele>39</ele>
        <time>2018-12-25T20:44:22+01:00</time>
      </trkpt>
      <trkpt lat="49.07164" lon="2.17647">
        <ele>40</ele>
        <time>2018-12-25T20:44:27+01:00</time>
      </trkpt>
      <trkpt lat="49.07161" lon="2.17598">
        <ele>39</ele>
        <time>2018-12-25T20:44:32+01:00</time>
      </trkpt>
      <trkpt lat="49.0715" lon="2.17521">
        <ele>39</ele>
        <time>2018-12-25T20:44:37+01:00</time>
      </trkpt>
      <trkpt lat="49.07143" lon="2.17416">
        <ele>43</ele>
        <time>2018-12-25T20:44:42+01:00</time>
      </trkpt>
      <trkpt lat="49.07134" lon="2.17364">
        <ele>42</ele>
        <time>2018-12-25T20:44:47+01:00</time>
      </trkpt>
      <trkpt lat="49.07134" lon="2.17281">
        <ele>41</ele>
        <time>2018-12-25T20:44:52+01:00</time>
      </trkpt>
      <trkpt lat="49.07131" lon="2.1724">
        <ele>39</ele>
        <time>2018-12-25T20:44:57+01:00</time>
      </trkpt>
      <trkpt lat="49.0714" lon="2.17192">
        <ele>38</ele>
        <time>2018-12-25T20:45:02+01:00</time>
      </trkpt>
      <trkpt lat="49.07157" lon="2.17143">
        <ele>38</ele>
        <time>2018-12-25T20:45:07+01:00</time>
      </trkpt>
      <trkpt lat="49.07193" lon="2.17092">
        <ele>37</ele>
        <time>2018-12-25T20:45:12+01:00</time>
      </trkpt>
      <trkpt lat="49.07291" lon="2.17019">
        <ele>37</ele>
        <time>2018-12-25T20:45:17+01:00</time>
      </trkpt>
      <trkpt lat="49.07345" lon="2.16992">
        <ele>37</ele>
        <time>2018-12-25T20:45:22+01:00</time>
      </trkpt>
      <trkpt lat="49.07379" lon="2.1698">
        <ele>38</ele>
        <time>2018-12-25T20:45:27+01:00</time>
      </trkpt>
      <trkpt lat="49.07423" lon="2.16984">
        <ele>40</ele>
        <time>2018-12-25T20:45:32+01:00</time>
      </trkpt>
      <trkpt lat="49.07451" lon="2.17002">
        <ele>40</ele>
        <time>2018-12-25T20:45:37+01:00</time>
      </trkpt>
      <trkpt lat="49.0749" lon="2.1705">
        <ele>44</ele>
        <time>2018-12-25T20:45:42+01:00</time>
      </trkpt>
      <trkpt lat="49.07529" lon="2.17075">
        <ele>45</ele>
        <time>2018-12-25T20:45:47+01:00</time>
      </trkpt>
      <trkpt lat="49.0757" lon="2.17086">
        <ele>43</ele>
        <time>2018-12-25T20:45:52+01:00</time>
      </trkpt>
      <trkpt lat="49.0768" lon="2.17094">
        <ele>39</ele>
        <time>2018-12-25T20:45:57+01:00</time>
      </trkpt>
      <trkpt lat="49.07751" lon="2.17108">
        <ele>40</ele>
        <time>2018-12-25T20:46:02+01:00</time>
      </trkpt>
      <trkpt lat="49.07829" lon="2.17143">
        <ele>43</ele>
        <time>2018-12-25T20:46:07+01:00</time>
      </trkpt>
      <trkpt lat="49.07893" lon="2.17189">
        <ele>43</ele>
        <time>2018-12-25T20:46:12+01:00</time>
      </trkpt>
      <trkpt lat="49.07909" lon="2.17197">
        <ele>43</ele>
        <time>2018-12-25T20:46:17+01:00</time>
      </trkpt>
      <trkpt lat="49.07955" lon="2.17166">
        <ele>43</ele>
        <time>2018-12-25T20:46:22+01:00</time>
      </trkpt>
      <trkpt lat="49.07995" lon="2.17125">
        <ele>46</ele>
        <time>2018-12-25T20:46:27+01:00</time>
      </trkpt>
      <trkpt lat="49.08052" lon="2.17066">
        <ele>48</ele>
        <time>2018-12-25T20:46:32+01:00</time>
      </trkpt>
      <trkpt lat="49.08117" lon="2.17015">
        <ele>50</ele>
        <time>2018-12-25T20:46:37+01:00</time>
      </trkpt>
      <trkpt lat="49.08156" lon="2.16993">
        <ele>54</ele>
        <time>2018-12-25T20:46:42+01:00</time>
      </trkpt>
      <trkpt lat="49.08221" lon="2.16911">
        <ele>57</ele>
        <time>2018-12-25T20:46:47+01:00</time>
      </trkpt>
      <trkpt lat="49.08233" lon="2.16879">
        <ele>56</ele>
        <time>2018-12-25T20:46:52+01:00</time>
      </trkpt>
      <trkpt lat="49.08232" lon="2.1683">
        <ele>53</ele>
        <time>2018-12-25T20:46:57+01:00</time>
      </trkpt>
      <trkpt lat="49.08248" lon="2.16808">
        <ele>54</ele>
        <time>2018-12-25T20:47:02+01:00</time>
      </trkpt>
      <trkpt lat="49.08299" lon="2.16822">
        <ele>57</ele>
        <time>2018-12-25T20:47:07+01:00</time>
      </trkpt>
      <trkpt lat="49.08353" lon="2.16848">
        <ele>60</ele>
        <time>2018-12-25T20:47:12+01:00</time>
      </trkpt>
      <trkpt lat="49.0842" lon="2.16872">
        <ele>63</ele>
        <time>2018-12-25T20:47:17+01:00</time>
      </trkpt>
      <trkpt lat="49.08494" lon="2.16881">
        <ele>68</ele>
        <time>2018-12-25T20:47:22+01:00</time>
      </trkpt>
      <trkpt lat="49.08534" lon="2.16869">
        <ele>70</ele>
        <time>2018-12-25T20:47:27+01:00</time>
      </trkpt>
      <trkpt lat="49.08565" lon="2.16844">
        <ele>69</ele>
        <time>2018-12-25T20:47:32+01:00</time>
      </trkpt>
      <trkpt lat="49.08589" lon="2.16794">
        <ele>68</ele>
        <time>2018-12-25T20:47:37+01:00</time>
      </trkpt>
      <trkpt lat="49.0861" lon="2.16722">
        <ele>68</ele>
        <time>2018-12-25T20:47:42+01:00</time>
      </trkpt>
      <trkpt lat="49.08632" lon="2.16581">
        <ele>68</ele>
        <time>2018-12-25T20:47:47+01:00</time>
      </trkpt>
      <trkpt lat="49.08671" lon="2.16484">
        <ele>66</ele>
        <time>2018-12-25T20:47:52+01:00</time>
      </trkpt>
      <trkpt lat="49.08722" lon="2.16394">
        <ele>70</ele>
        <time>2018-12-25T20:47:57+01:00</time>
      </trkpt>
      <trkpt lat="49.08745" lon="2.16363">
        <ele>69</ele>
        <time>2018-12-25T20:48:02+01:00</time>
      </trkpt>
      <trkpt lat="49.08787" lon="2.1634">
        <ele>72</ele>
        <time>2018-12-25T20:48:07+01:00</time>
      </trkpt>
      <trkpt lat="49.08855" lon="2.16283">
        <ele>76</ele>
        <time>2018-12-25T20:48:12+01:00</time>
      </trkpt>
      <trkpt lat="49.08907" lon="2.16216">
        <ele>72</ele>
        <time>2018-12-25T20:48:17+01:00</time>
      </trkpt>
      <trkpt lat="49.08966" lon="2.16168">
        <ele>72</ele>
        <time>2018-12-25T20:48:22+01:00</time>
      </trkpt>
      <trkpt lat="49.09026" lon="2.16136">
        <ele>73</ele>
        <time>2018-12-25T20:48:27+01:00</time>
      </trkpt>
      <trkpt lat="49.09117" lon="2.16078">
        <ele>73</ele>
        <time>2018-12-25T20:48:32+01:00</time>
      </trkpt>
      <trkpt lat="49.09199" lon="2.16064">
        <ele>76</ele>
        <time>2018-12-25T20:48:37+01:00</time>
      </trkpt>
      <trkpt lat="49.09258" lon="2.16054">
        <ele>77</ele>
        <time>2018-12-25T20:48:42+01:00</time>
      </trkpt>
      <trkpt lat="49.09273" lon="2.16055">
        <ele>77</ele>
        <time>2018-12-25T20:48:47+01:00</time>
      </trkpt>
      <trkpt lat="49.09293" lon="2.16032">
        <ele>75</ele>
        <time>2018-12-25T20:48:52+01:00</time>
      </trkpt>
      <trkpt lat="49.09324" lon="2.16028">
        <ele>75</ele>
        <time>2018-12-25T20:48:57+01:00</time>
      </trkpt>
      <trkpt lat="49.09418" lon="2.16008">
        <ele>75</ele>
        <time>2018-12-25T20:49:02+01:00</time>
      </trkpt>
      <trkpt lat="49.09481" lon="2.1602">
        <ele>78</ele>
        <time>2018-12-25T20:49:07+01:00</time>
      </trkpt>
      <trkpt lat="49.09552" lon="2.16014">
        <ele>78</ele>
        <time>2018-12-25T20:49:12+01:00</time>
      </trkpt>
      <trkpt lat="49.09632" lon="2.15998">
        <ele>78</ele>
        <time>2018-12-25T20:49:17+01:00</time>
      </trkpt>
      <trkpt lat="49.09662" lon="2.15983">
        <ele>81</ele>
        <time>2018-12-25T20:49:22+01:00</time>
      </trkpt>
      <trkpt lat="49.09712" lon="2.16073">
        <ele>83</ele>
        <time>2018-12-25T20:49:27+01:00</time>
      </trkpt>
      <trkpt lat="49.09756" lon="2.16168">
        <ele>84</ele>
        <time>2018-12-25T20:49:32+01:00</time>
      </trkpt>
      <trkpt lat="49.09799" lon="2.16242">
        <ele>85</ele>
        <time>2018-12-25T20:49:37+01:00</time>
      </trkpt>
      <trkpt lat="49.09843" lon="2.16318">
        <ele>87</ele>
        <time>2018-12-25T20:49:42+01:00</time>
      </trkpt>
      <trkpt lat="49.09881" lon="2.16384">
        <ele>89</ele>
        <time>2018-12-25T20:49:47+01:00</time>
      </trkpt>
      <trkpt lat="49.09907" lon="2.16439">
        <ele>90</ele>
        <time>2018-12-25T20:49:52+01:00</time>
      </trkpt>
      <trkpt lat="49.09932" lon="2.16514">
        <ele>92</ele>
        <time>2018-12-25T20:49:57+01:00</time>
      </trkpt>
      <trkpt lat="49.09946" lon="2.16562">
        <ele>94</ele>
        <time>2018-12-25T20:50:02+01:00</time>
      </trkpt>
      <trkpt lat="49.09991" lon="2.16672">
        <ele>95</ele>
        <time>2018-12-25T20:50:07+01:00</time>
      </trkpt>
      <trkpt lat="49.10109" lon="2.16904">
        <ele>100</ele>
        <time>2018-12-25T20:50:12+01:00</time>
      </trkpt>
      <trkpt lat="49.10158" lon="2.17003">
        <ele>101</ele>
        <time>2018-12-25T20:50:17+01:00</time>
      </trkpt>
      <trkpt lat="49.10219" lon="2.17135">
        <ele>100</ele>
        <time>2018-12-25T20:50:22+01:00</time>
      </trkpt>
      <trkpt lat="49.10219" lon="2.17145">
        <ele>100</ele>
        <time>2018-12-25T20:50:27+01:00</time>
      </trkpt>
      <trkpt lat="49.10241" lon="2.17177">
        <ele>100</ele>
        <time>2018-12-25T20:50:32+01:00</time>
      </trkpt>
      <trkpt lat="49.10262" lon="2.17248">
        <ele>98</ele>
        <time>2018-12-25T20:50:37+01:00</time>
      </trkpt>
      <trkpt lat="49.10317" lon="2.17445">
        <ele>96</ele>
        <time>2018-12-25T20:50:42+01:00</time>
      </trkpt>
      <trkpt lat="49.1035" lon="2.17554">
        <ele>94</ele>
        <time>2018-12-25T20:50:47+01:00</time>
      </trkpt>
      <trkpt lat="49.10374" lon="2.17622">
        <ele>92</ele>
        <time>2018-12-25T20:50:52+01:00</time>
      </trkpt>
      <trkpt lat="49.10394" lon="2.17676">
        <ele>91</ele>
        <time>2018-12-25T20:50:57+01:00</time>
      </trkpt>
      <trkpt lat="49.10405" lon="2.17748">
        <ele>90</ele>
        <time>2018-12-25T20:51:02+01:00</time>
      </trkpt>
      <trkpt lat="49.10401" lon="2.17818">
        <ele>90</ele>
        <time>2018-12-25T20:51:07+01:00</time>
      </trkpt>
      <trkpt lat="49.10389" lon="2.17897">
        <ele>88</ele>
        <time>2018-12-25T20:51:12+01:00</time>
      </trkpt>
      <trkpt lat="49.10366" lon="2.17963">
        <ele>82</ele>
        <time>2018-12-25T20:51:17+01:00</time>
      </trkpt>
      <trkpt lat="49.10358" lon="2.18008">
        <ele>77</ele>
        <time>2018-12-25T20:51:22+01:00</time>
      </trkpt>
      <trkpt lat="49.10354" lon="2.18102">
        <ele>62</ele>
        <time>2018-12-25T20:51:27+01:00</time>
      </trkpt>
      <trkpt lat="49.10367" lon="2.18132">
        <ele>56</ele>
        <time>2018-12-25T20:51:32+01:00</time>
      </trkpt>
      <trkpt lat="49.10388" lon="2.18148">
        <ele>55</ele>
        <time>2018-12-25T20:51:37+01:00</time>
      </trkpt>
      <trkpt lat="49.1043" lon="2.18157">
        <ele>55</ele>
        <time>2018-12-25T20:51:42+01:00</time>
      </trkpt>
      <trkpt lat="49.10462" lon="2.18142">
        <ele>56</ele>
        <time>2018-12-25T20:51:47+01:00</time>
      </trkpt>
      <trkpt lat="49.10499" lon="2.18071">
        <ele>62</ele>
        <time>2018-12-25T20:51:52+01:00</time>
      </trkpt>
      <trkpt lat="49.10601" lon="2.18109">
        <ele>39</ele>
        <time>2018-12-25T20:51:57+01:00</time>
      </trkpt>
      <trkpt lat="49.10625" lon="2.18145">
        <ele>36</ele>
        <time>2018-12-25T20:52:02+01:00</time>
      </trkpt>
      <trkpt lat="49.10641" lon="2.18174">
        <ele>34</ele>
        <time>2018-12-25T20:52:07+01:00</time>
      </trkpt>
      <trkpt lat="49.10615" lon="2.18202">
        <ele>35</ele>
        <time>2018-12-25T20:52:12+01:00</time>
      </trkpt>
      <trkpt lat="49.10566" lon="2.1825">
        <ele>35</ele>
        <time>2018-12-25T20:52:17+01:00</time>
      </trkpt>
      <trkpt lat="49.1051" lon="2.18275">
        <ele>37</ele>
        <time>2018-12-25T20:52:22+01:00</time>
      </trkpt>
      <trkpt lat="49.10457" lon="2.18282">
        <ele>37</ele>
        <time>2018-12-25T20:52:27+01:00</time>
      </trkpt>
      <trkpt lat="49.10397" lon="2.1828">
        <ele>37</ele>
        <time>2018-12-25T20:52:32+01:00</time>
      </trkpt>
      <trkpt lat="49.10346" lon="2.18273">
        <ele>37</ele>
        <time>2018-12-25T20:52:37+01:00</time>
      </trkpt>
      <trkpt lat="49.10239" lon="2.18273">
        <ele>34</ele>
        <time>2018-12-25T20:52:42+01:00</time>
      </trkpt>
      <trkpt lat="49.10162" lon="2.18274">
        <ele>35</ele>
        <time>2018-12-25T20:52:47+01:00</time>
      </trkpt>
      <trkpt lat="49.10134" lon="2.18285">
        <ele>35</ele>
        <time>2018-12-25T20:52:52+01:00</time>
      </trkpt>
      <trkpt lat="49.10096" lon="2.18309">
        <ele>34</ele>
        <time>2018-12-25T20:52:57+01:00</time>
      </trkpt>
      <trkpt lat="49.10061" lon="2.18323">
        <ele>34</ele>
        <time>2018-12-25T20:53:02+01:00</time>
      </trkpt>
      <trkpt lat="49.10032" lon="2.18376">
        <ele>35</ele>
        <time>2018-12-25T20:53:07+01:00</time>
      </trkpt>
      <trkpt lat="49.09986" lon="2.18455">
        <ele>36</ele>
        <time>2018-12-25T20:53:12+01:00</time>
      </trkpt>
      <trkpt lat="49.09935" lon="2.1853">
        <ele>33</ele>
        <time>2018-12-25T20:53:17+01:00</time>
      </trkpt>
      <trkpt lat="49.0991" lon="2.18582">
        <ele>33</ele>
        <time>2018-12-25T20:53:22+01:00</time>
      </trkpt>
      <trkpt lat="49.09898" lon="2.18616">
        <ele>34</ele>
        <time>2018-12-25T20:53:27+01:00</time>
      </trkpt>
      <trkpt lat="49.09885" lon="2.18704">
        <ele>35</ele>
        <time>2018-12-25T20:53:32+01:00</time>
      </trkpt>
      <trkpt lat="49.09876" lon="2.18828">
        <ele>34</ele>
        <time>2018-12-25T20:53:37+01:00</time>
      </trkpt>
      <trkpt lat="49.09821" lon="2.18982">
        <ele>32</ele>
        <time>2018-12-25T20:53:42+01:00</time>
      </trkpt>
      <trkpt lat="49.09763" lon="2.19109">
        <ele>32</ele>
        <time>2018-12-25T20:53:47+01:00</time>
      </trkpt>
      <trkpt lat="49.09742" lon="2.19143">
        <ele>31</ele>
        <time>2018-12-25T20:53:52+01:00</time>
      </trkpt>
      <trkpt lat="49.09694" lon="2.19199">
        <ele>33</ele>
        <time>2018-12-25T20:53:57+01:00</time>
      </trkpt>
      <trkpt lat="49.09624" lon="2.19255">
        <ele>31</ele>
        <time>2018-12-25T20:54:02+01:00</time>
      </trkpt>
      <trkpt lat="49.09619" lon="2.19266">
        <ele>31</ele>
        <time>2018-12-25T20:54:07+01:00</time>
      </trkpt>
      <trkpt lat="49.09579" lon="2.19297">
        <ele>29</ele>
        <time>2018-12-25T20:54:12+01:00</time>
      </trkpt>
      <trkpt lat="49.09539" lon="2.19317">
        <ele>30</ele>
        <time>2018-12-25T20:54:17+01:00</time>
      </trkpt>
      <trkpt lat="49.09466" lon="2.19342">
        <ele>30</ele>
        <time>2018-12-25T20:54:22+01:00</time>
      </trkpt>
      <trkpt lat="49.09409" lon="2.19359">
        <ele>30</ele>
        <time>2018-12-25T20:54:27+01:00</time>
      </trkpt>
      <trkpt lat="49.09404" lon="2.194">
        <ele>30</ele>
        <time>2018-12-25T20:54:32+01:00</time>
      </trkpt>
      <trkpt lat="49.09392" lon="2.19441">
        <ele>30</ele>
        <time>2018-12-25T20:54:37+01:00</time>
      </trkpt>
      <trkpt lat="49.09364" lon="2.19477">
        <ele>30</ele>
        <time>2018-12-25T20:54:42+01:00</time>
      </trkpt>
      <trkpt lat="49.09343" lon="2.19511">
        <ele>30</ele>
        <time>2018-12-25T20:54:47+01:00</time>
      </trkpt>
      <trkpt lat="49.09314" lon="2.19497">
        <ele>32</ele>
        <time>2018-12-25T20:54:52+01:00</time>
      </trkpt>
      <trkpt lat="49.09285" lon="2.19496">
        <ele>34</ele>
        <time>2018-12-25T20:54:57+01:00</time>
      </trkpt>
      <trkpt lat="49.09241" lon="2.19523">
        <ele>38</ele>
        <time>2018-12-25T20:55:02+01:00</time>
      </trkpt>
      <trkpt lat="49.09206" lon="2.19564">
        <ele>41</ele>
        <time>2018-12-25T20:55:07+01:00</time>
      </trkpt>
      <trkpt lat="49.09156" lon="2.19634">
        <ele>41</ele>
        <time>2018-12-25T20:55:12+01:00</time>
      </trkpt>
      <trkpt lat="49.09113" lon="2.1967">
        <ele>39</ele>
        <time>2018-12-25T20:55:17+01:00</time>
      </trkpt>
      <trkpt lat="49.09076" lon="2.19703">
        <ele>38</ele>
        <time>2018-12-25T20:55:22+01:00</time>
      </trkpt>
      <trkpt lat="49.09049" lon="2.19752">
        <ele>33</ele>
        <time>2018-12-25T20:55:27+01:00</time>
      </trkpt>
      <trkpt lat="49.09036" lon="2.1976">
        <ele>32</ele>
        <time>2018-12-25T20:55:32+01:00</time>
      </trkpt>
      <trkpt lat="49.0902" lon="2.19806">
        <ele>30</ele>
        <time>2018-12-25T20:55:37+01:00</time>
      </trkpt>
      <trkpt lat="49.09014" lon="2.19847">
        <ele>28</ele>
        <time>2018-12-25T20:55:42+01:00</time>
      </trkpt>
      <trkpt lat="49.09016" lon="2.19903">
        <ele>26</ele>
        <time>2018-12-25T20:55:47+01:00</time>
      </trkpt>
      <trkpt lat="49.09022" lon="2.19956">
        <ele>26</ele>
        <time>2018-12-25T20:55:52+01:00</time>
      </trkpt>
      <trkpt lat="49.09037" lon="2.20006">
        <ele>26</ele>
        <time>2018-12-25T20:55:57+01:00</time>
      </trkpt>
      <trkpt lat="49.09053" lon="2.20044">
        <ele>26</ele>
        <time>2018-12-25T20:56:02+01:00</time>
      </trkpt>
      <trkpt lat="49.09083" lon="2.20076">
        <ele>25</ele>
        <time>2018-12-25T20:56:07+01:00</time>
      </trkpt>
      <trkpt lat="49.09136" lon="2.201">
        <ele>26</ele>
        <time>2018-12-25T20:56:12+01:00</time>
      </trkpt>
      <trkpt lat="49.09177" lon="2.20089">
        <ele>26</ele>
        <time>2018-12-25T20:56:17+01:00</time>
      </trkpt>
      <trkpt lat="49.092" lon="2.20077">
        <ele>25</ele>
        <time>2018-12-25T20:56:22+01:00</time>
      </trkpt>
      <trkpt lat="49.09228" lon="2.20131">
        <ele>26</ele>
        <time>2018-12-25T20:56:27+01:00</time>
      </trkpt>
      <trkpt lat="49.09248" lon="2.20164">
        <ele>27</ele>
        <time>2018-12-25T20:56:32+01:00</time>
      </trkpt>
      <trkpt lat="49.09248" lon="2.20182">
        <ele>27</ele>
        <time>2018-12-25T20:56:37+01:00</time>
      </trkpt>
      <trkpt lat="49.0924" lon="2.20211">
        <ele>26</ele>
        <time>2018-12-25T20:56:42+01:00</time>
      </trkpt>
      <trkpt lat="49.09231" lon="2.20247">
        <ele>25</ele>
        <time>2018-12-25T20:56:47+01:00</time>
      </trkpt>
      <trkpt lat="49.09204" lon="2.20276">
        <ele>25</ele>
        <time>2018-12-25T20:56:52+01:00</time>
      </trkpt>
      <trkpt lat="49.09187" lon="2.20365">
        <ele>25</ele>
        <time>2018-12-25T20:56:57+01:00</time>
      </trkpt>
      <trkpt lat="49.09173" lon="2.20442">
        <ele>26</ele>
        <time>2018-12-25T20:57:02+01:00</time>
      </trkpt>
      <trkpt lat="49.09165" lon="2.2053">
        <ele>25</ele>
        <time>2018-12-25T20:57:07+01:00</time>
      </trkpt>
      <trkpt lat="49.09148" lon="2.2061">
        <ele>26</ele>
        <time>2018-12-25T20:57:12+01:00</time>
      </trkpt>
      <trkpt lat="49.09117" lon="2.20772">
        <ele>28</ele>
        <time>2018-12-25T20:57:17+01:00</time>
      </trkpt>
      <trkpt lat="49.09085" lon="2.2076">
        <ele>30</ele>
        <time>2018-12-25T20:57:22+01:00</time>
      </trkpt>
      <trkpt lat="49.09037" lon="2.20727">
        <ele>30</ele>
        <time>2018-12-25T20:57:27+01:00</time>
      </trkpt>
      <trkpt lat="49.08965" lon="2.20697">
        <ele>30</ele>
        <time>2018-12-25T20:57:32+01:00</time>
      </trkpt>
      <trkpt lat="49.08897" lon="2.20664">
        <ele>29</ele>
        <time>2018-12-25T20:57:37+01:00</time>
      </trkpt>
      <trkpt lat="49.08846" lon="2.20643">
        <ele>27</ele>
        <time>2018-12-25T20:57:42+01:00</time>
      </trkpt>
      <trkpt lat="49.08804" lon="2.20622">
        <ele>27</ele>
        <time>2018-12-25T20:57:47+01:00</time>
      </trkpt>
      <trkpt lat="49.08759" lon="2.2061">
        <ele>27</ele>
        <time>2018-12-25T20:57:52+01:00</time>
      </trkpt>
      <trkpt lat="49.08678" lon="2.20574">
        <ele>27</ele>
        <time>2018-12-25T20:57:57+01:00</time>
      </trkpt>
      <trkpt lat="49.08642" lon="2.20542">
        <ele>27</ele>
        <time>2018-12-25T20:58:02+01:00</time>
      </trkpt>
      <trkpt lat="49.08574" lon="2.20493">
        <ele>26</ele>
        <time>2018-12-25T20:58:07+01:00</time>
      </trkpt>
      <trkpt lat="49.08541" lon="2.20459">
        <ele>26</ele>
        <time>2018-12-25T20:58:12+01:00</time>
      </trkpt>
      <trkpt lat="49.08493" lon="2.20402">
        <ele>25</ele>
        <time>2018-12-25T20:58:17+01:00</time>
      </trkpt>
      <trkpt lat="49.08476" lon="2.204">
        <ele>25</ele>
        <time>2018-12-25T20:58:22+01:00</time>
      </trkpt>
      <trkpt lat="49.08465" lon="2.20389">
        <ele>25</ele>
        <time>2018-12-25T20:58:27+01:00</time>
      </trkpt>
      <trkpt lat="49.08446" lon="2.20354">
        <ele>25</ele>
        <time>2018-12-25T20:58:32+01:00</time>
      </trkpt>
      <trkpt lat="49.08419" lon="2.20322">
        <ele>24</ele>
        <time>2018-12-25T20:58:37+01:00</time>
      </trkpt>
      <trkpt lat="49.08387" lon="2.20282">
        <ele>24</ele>
        <time>2018-12-25T20:58:42+01:00</time>
      </trkpt>
      <trkpt lat="49.0835" lon="2.20257">
        <ele>25</ele>
        <time>2018-12-25T20:58:47+01:00</time>
      </trkpt>
      <trkpt lat="49.08293" lon="2.20213">
        <ele>25</ele>
        <time>2018-12-25T20:58:52+01:00</time>
      </trkpt>
      <trkpt lat="49.08233" lon="2.2016">
        <ele>25</ele>
        <time>2018-12-25T20:58:57+01:00</time>
      </trkpt>
      <trkpt lat="49.082" lon="2.20135">
        <ele>23</ele>
        <time>2018-12-25T20:59:02+01:00</time>
      </trkpt>
      <trkpt lat="49.08168" lon="2.20113">
        <ele>22</ele>
        <time>2018-12-25T20:59:07+01:00</time>
      </trkpt>
      <trkpt lat="49.08119" lon="2.20085">
        <ele>24</ele>
        <time>2018-12-25T20:59:12+01:00</time>
      </trkpt>
      <trkpt lat="49.08074" lon="2.20065">
        <ele>25</ele>
        <time>2018-12-25T20:59:17+01:00</time>
      </trkpt>
      <trkpt lat="49.08053" lon="2.20051">
        <ele>25</ele>
        <time>2018-12-25T20:59:22+01:00</time>
      </trkpt>
      <trkpt lat="49.08016" lon="2.20026">
        <ele>25</ele>
        <time>2018-12-25T20:59:27+01:00</time>
      </trkpt>
      <trkpt lat="49.07976" lon="2.19992">
        <ele>25</ele>
        <time>2018-12-25T20:59:32+01:00</time>
      </trkpt>
      <trkpt lat="49.07942" lon="2.19961">
        <ele>25</ele>
        <time>2018-12-25T20:59:37+01:00</time>
      </trkpt>
      <trkpt lat="49.07907" lon="2.19936">
        <ele>24</ele>
        <time>2018-12-25T20:59:42+01:00</time>
      </trkpt>
      <trkpt lat="49.07875" lon="2.19903">
        <ele>24</ele>
        <time>2018-12-25T20:59:47+01:00</time>
      </trkpt>
      <trkpt lat="49.07847" lon="2.19881">
        <ele>24</ele>
        <time>2018-12-25T20:59:52+01:00</time>
      </trkpt>
      <trkpt lat="49.07821" lon="2.19851">
        <ele>24</ele>
        <time>2018-12-25T20:59:57+01:00</time>
      </trkpt>
      <trkpt lat="49.07755" lon="2.19789">
        <ele>25</ele>
        <time>2018-12-25T21:00:02+01:00</time>
      </trkpt>
      <trkpt lat="49.07705" lon="2.19732">
        <ele>23</ele>
        <time>2018-12-25T21:00:07+01:00</time>
      </trkpt>
      <trkpt lat="49.07661" lon="2.19686">
        <ele>22</ele>
        <time>2018-12-25T21:00:12+01:00</time>
      </trkpt>
      <trkpt lat="49.07615" lon="2.19624">
        <ele>22</ele>
        <time>2018-12-25T21:00:17+01:00</time>
      </trkpt>
      <trkpt lat="49.07556" lon="2.19544">
        <ele>24</ele>
        <time>2018-12-25T21:00:22+01:00</time>
      </trkpt>
      <trkpt lat="49.07512" lon="2.19472">
        <ele>24</ele>
        <time>2018-12-25T21:00:27+01:00</time>
      </trkpt>
      <trkpt lat="49.07467" lon="2.19399">
        <ele>24</ele>
        <time>2018-12-25T21:00:32+01:00</time>
      </trkpt>
      <trkpt lat="49.07427" lon="2.1932">
        <ele>25</ele>
        <time>2018-12-25T21:00:37+01:00</time>
      </trkpt>
      <trkpt lat="49.07387" lon="2.19239">
        <ele>24</ele>
        <time>2018-12-25T21:00:42+01:00</time>
      </trkpt>
      <trkpt lat="49.07355" lon="2.19167">
        <ele>24</ele>
        <time>2018-12-25T21:00:47+01:00</time>
      </trkpt>
      <trkpt lat="49.07312" lon="2.19081">
        <ele>24</ele>
        <time>2018-12-25T21:00:52+01:00</time>
      </trkpt>
      <trkpt lat="49.07284" lon="2.19012">
        <ele>25</ele>
        <time>2018-12-25T21:00:57+01:00</time>
      </trkpt>
      <trkpt lat="49.07256" lon="2.18921">
        <ele>25</ele>
        <time>2018-12-25T21:01:02+01:00</time>
      </trkpt>
      <trkpt lat="49.07244" lon="2.1886">
        <ele>24</ele>
        <time>2018-12-25T21:01:07+01:00</time>
      </trkpt>
      <trkpt lat="49.07229" lon="2.18797">
        <ele>25</ele>
        <time>2018-12-25T21:01:12+01:00</time>
      </trkpt>
      <trkpt lat="49.07215" lon="2.18735">
        <ele>25</ele>
        <time>2018-12-25T21:01:17+01:00</time>
      </trkpt>
      <trkpt lat="49.0719" lon="2.18633">
        <ele>27</ele>
        <time>2018-12-25T21:01:22+01:00</time>
      </trkpt>
      <trkpt lat="49.07184" lon="2.1859">
        <ele>27</ele>
        <time>2018-12-25T21:01:27+01:00</time>
      </trkpt>
      <trkpt lat="49.0717" lon="2.18521">
        <ele>24</ele>
        <time>2018-12-25T21:01:32+01:00</time>
      </trkpt>
      <trkpt lat="49.07155" lon="2.18463">
        <ele>24</ele>
        <time>2018-12-25T21:01:37+01:00</time>
      </trkpt>
      <trkpt lat="49.07147" lon="2.18392">
        <ele>25</ele>
        <time>2018-12-25T21:01:42+01:00</time>
      </trkpt>
      <trkpt lat="49.07129" lon="2.18267">
        <ele>25</ele>
        <time>2018-12-25T21:01:47+01:00</time>
      </trkpt>
      <trkpt lat="49.07109" lon="2.18137">
        <ele>27</ele>
        <time>2018-12-25T21:01:52+01:00</time>
      </trkpt>
      <trkpt lat="49.07079" lon="2.1799">
        <ele>24</ele>
        <time>2018-12-25T21:01:57+01:00</time>
      </trkpt>
      <trkpt lat="49.07059" lon="2.17921">
        <ele>25</ele>
        <time>2018-12-25T21:02:02+01:00</time>
      </trkpt>
      <trkpt lat="49.0707" lon="2.1791">
        <ele>25</ele>
        <time>2018-12-25T21:02:07+01:00</time>
      </trkpt>
      <trkpt lat="49.07076" lon="2.17882">
        <ele>25</ele>
        <time>2018-12-25T21:02:12+01:00</time>
      </trkpt>
      <trkpt lat="49.07079" lon="2.17842">
        <ele>26</ele>
        <time>2018-12-25T21:02:17+01:00</time>
      </trkpt>
      <trkpt lat="49.07056" lon="2.17792">
        <ele>26</ele>
        <time>2018-12-25T21:02:22+01:00</time>
      </trkpt>
      <trkpt lat="49.07056" lon="2.17775">
        <ele>27</ele>
        <time>2018-12-25T21:02:27+01:00</time>
      </trkpt>
      <trkpt lat="49.07068" lon="2.17698">
        <ele>28</ele>
        <time>2018-12-25T21:02:32+01:00</time>
      </trkpt>
      <trkpt lat="49.07066" lon="2.17642">
        <ele>29</ele>
        <time>2018-12-25T21:02:37+01:00</time>
      </trkpt>
    </trkseg>
  </trk>
</gpx>